sensor_id;sensor_type;location;lat;lon;timestamp;P1;durP1;ratioP1;P2;durP2;ratioP2
24873;SDS011;12945;42.648;23.370;2024-01-16T00:00:15;27.98;;;15.32;;
24873;SDS011;12945;42.648;23.370;2024-01-16T00:02:41;29.13;;;15.25;;
24873;SDS011;12945;42.648;23.370;2024-01-16T00:05:06;31.70;;;16.23;;
24873;SDS011;12945;42.648;23.370;2024-01-16T00:07:31;29.30;;;14.90;;
24873;SDS011;12945;42.648;23.370;2024-01-16T00:09:58;27.55;;;15.18;;
24873;SDS011;12945;42.648;23.370;2024-01-16T00:12:23;29.58;;;15.45;;
24873;SDS011;12945;42.648;23.370;2024-01-16T00:14:49;30.95;;;14.55;;
24873;SDS011;12945;42.648;23.370;2024-01-16T00:17:14;29.73;;;15.63;;
24873;SDS011;12945;42.648;23.370;2024-01-16T00:19:40;31.65;;;15.73;;
24873;SDS011;12945;42.648;23.370;2024-01-16T00:22:05;27.67;;;15.38;;
24873;SDS011;12945;42.648;23.370;2024-01-16T00:24:30;29.90;;;14.93;;
24873;SDS011;12945;42.648;23.370;2024-01-16T00:26:56;28.40;;;13.85;;
24873;SDS011;12945;42.648;23.370;2024-01-16T00:29:21;25.52;;;13.93;;
24873;SDS011;12945;42.648;23.370;2024-01-16T00:31:46;30.80;;;14.40;;
24873;SDS011;12945;42.648;23.370;2024-01-16T00:34:12;28.13;;;13.85;;
24873;SDS011;12945;42.648;23.370;2024-01-16T00:36:37;27.30;;;14.52;;
24873;SDS011;12945;42.648;23.370;2024-01-16T00:39:02;27.45;;;13.95;;
24873;SDS011;12945;42.648;23.370;2024-01-16T00:41:28;29.13;;;14.60;;
24873;SDS011;12945;42.648;23.370;2024-01-16T00:43:53;24.77;;;13.05;;
24873;SDS011;12945;42.648;23.370;2024-01-16T00:46:19;28.85;;;13.63;;
24873;SDS011;12945;42.648;23.370;2024-01-16T00:48:45;28.15;;;13.48;;
24873;SDS011;12945;42.648;23.370;2024-01-16T00:51:11;26.48;;;12.73;;
24873;SDS011;12945;42.648;23.370;2024-01-16T00:53:43;20.17;;;10.95;;
24873;SDS011;12945;42.648;23.370;2024-01-16T00:56:08;23.15;;;13.10;;
24873;SDS011;12945;42.648;23.370;2024-01-16T00:58:33;24.80;;;12.85;;
24873;SDS011;12945;42.648;23.370;2024-01-16T01:00:59;25.65;;;12.93;;
24873;SDS011;12945;42.648;23.370;2024-01-16T01:03:24;25.73;;;13.10;;
24873;SDS011;12945;42.648;23.370;2024-01-16T01:05:49;22.95;;;12.45;;
24873;SDS011;12945;42.648;23.370;2024-01-16T01:08:15;26.08;;;13.68;;
24873;SDS011;12945;42.648;23.370;2024-01-16T01:10:40;27.10;;;12.68;;
24873;SDS011;12945;42.648;23.370;2024-01-16T01:13:05;28.42;;;14.15;;
24873;SDS011;12945;42.648;23.370;2024-01-16T01:15:31;28.25;;;13.93;;
24873;SDS011;12945;42.648;23.370;2024-01-16T01:17:56;24.42;;;13.23;;
24873;SDS011;12945;42.648;23.370;2024-01-16T01:20:21;30.33;;;13.15;;
24873;SDS011;12945;42.648;23.370;2024-01-16T01:22:47;24.70;;;12.57;;
24873;SDS011;12945;42.648;23.370;2024-01-16T01:25:12;26.50;;;13.32;;
24873;SDS011;12945;42.648;23.370;2024-01-16T01:27:38;26.13;;;13.07;;
24873;SDS011;12945;42.648;23.370;2024-01-16T01:30:03;27.27;;;13.27;;
24873;SDS011;12945;42.648;23.370;2024-01-16T01:32:29;28.13;;;13.18;;
24873;SDS011;12945;42.648;23.370;2024-01-16T01:34:54;25.35;;;13.98;;
24873;SDS011;12945;42.648;23.370;2024-01-16T01:37:19;21.00;;;11.38;;
24873;SDS011;12945;42.648;23.370;2024-01-16T01:39:44;23.65;;;12.82;;
24873;SDS011;12945;42.648;23.370;2024-01-16T01:42:10;24.10;;;13.05;;
24873;SDS011;12945;42.648;23.370;2024-01-16T01:44:35;28.85;;;13.90;;
24873;SDS011;12945;42.648;23.370;2024-01-16T01:47:00;22.70;;;11.48;;
24873;SDS011;12945;42.648;23.370;2024-01-16T01:49:26;25.20;;;13.23;;
24873;SDS011;12945;42.648;23.370;2024-01-16T01:51:52;27.92;;;13.52;;
24873;SDS011;12945;42.648;23.370;2024-01-16T01:54:18;22.83;;;12.57;;
24873;SDS011;12945;42.648;23.370;2024-01-16T01:56:44;22.30;;;12.50;;
24873;SDS011;12945;42.648;23.370;2024-01-16T01:59:10;20.83;;;11.00;;
24873;SDS011;12945;42.648;23.370;2024-01-16T02:01:36;25.13;;;11.60;;
24873;SDS011;12945;42.648;23.370;2024-01-16T02:04:01;26.38;;;12.20;;
24873;SDS011;12945;42.648;23.370;2024-01-16T02:06:27;19.75;;;11.30;;
24873;SDS011;12945;42.648;23.370;2024-01-16T02:08:52;21.58;;;10.50;;
24873;SDS011;12945;42.648;23.370;2024-01-16T02:11:18;22.77;;;11.52;;
24873;SDS011;12945;42.648;23.370;2024-01-16T02:13:43;22.17;;;11.40;;
24873;SDS011;12945;42.648;23.370;2024-01-16T02:16:18;22.52;;;10.80;;
24873;SDS011;12945;42.648;23.370;2024-01-16T02:18:44;19.30;;;10.75;;
24873;SDS011;12945;42.648;23.370;2024-01-16T02:21:09;21.77;;;11.18;;
24873;SDS011;12945;42.648;23.370;2024-01-16T02:23:34;19.38;;;10.52;;
24873;SDS011;12945;42.648;23.370;2024-01-16T02:26:00;20.08;;;10.18;;
24873;SDS011;12945;42.648;23.370;2024-01-16T02:28:26;17.50;;;9.38;;
24873;SDS011;12945;42.648;23.370;2024-01-16T02:30:51;17.48;;;9.75;;
24873;SDS011;12945;42.648;23.370;2024-01-16T02:33:16;17.50;;;9.15;;
24873;SDS011;12945;42.648;23.370;2024-01-16T02:35:41;16.17;;;9.98;;
24873;SDS011;12945;42.648;23.370;2024-01-16T02:38:07;16.90;;;9.63;;
24873;SDS011;12945;42.648;23.370;2024-01-16T02:40:32;16.48;;;8.45;;
24873;SDS011;12945;42.648;23.370;2024-01-16T02:42:57;18.98;;;9.43;;
24873;SDS011;12945;42.648;23.370;2024-01-16T02:45:22;17.73;;;9.80;;
24873;SDS011;12945;42.648;23.370;2024-01-16T02:47:48;14.45;;;8.27;;
24873;SDS011;12945;42.648;23.370;2024-01-16T02:50:13;16.80;;;8.55;;
24873;SDS011;12945;42.648;23.370;2024-01-16T02:52:38;17.92;;;9.15;;
24873;SDS011;12945;42.648;23.370;2024-01-16T02:55:04;15.93;;;8.75;;
24873;SDS011;12945;42.648;23.370;2024-01-16T02:57:30;15.65;;;8.95;;
24873;SDS011;12945;42.648;23.370;2024-01-16T02:59:55;15.80;;;8.85;;
24873;SDS011;12945;42.648;23.370;2024-01-16T03:02:20;17.08;;;9.45;;
24873;SDS011;12945;42.648;23.370;2024-01-16T03:04:46;16.42;;;9.18;;
24873;SDS011;12945;42.648;23.370;2024-01-16T03:07:11;21.88;;;10.35;;
24873;SDS011;12945;42.648;23.370;2024-01-16T03:09:36;19.23;;;10.40;;
24873;SDS011;12945;42.648;23.370;2024-01-16T03:12:01;20.65;;;11.77;;
24873;SDS011;12945;42.648;23.370;2024-01-16T03:14:27;18.10;;;9.93;;
24873;SDS011;12945;42.648;23.370;2024-01-16T03:16:53;17.88;;;10.27;;
24873;SDS011;12945;42.648;23.370;2024-01-16T03:19:18;22.25;;;11.75;;
24873;SDS011;12945;42.648;23.370;2024-01-16T03:21:43;21.70;;;11.68;;
24873;SDS011;12945;42.648;23.370;2024-01-16T03:24:09;21.13;;;11.18;;
24873;SDS011;12945;42.648;23.370;2024-01-16T03:26:38;19.08;;;10.43;;
24873;SDS011;12945;42.648;23.370;2024-01-16T03:29:03;17.95;;;10.43;;
24873;SDS011;12945;42.648;23.370;2024-01-16T03:31:29;19.42;;;10.35;;
24873;SDS011;12945;42.648;23.370;2024-01-16T03:33:54;13.90;;;8.93;;
24873;SDS011;12945;42.648;23.370;2024-01-16T03:36:20;14.88;;;8.65;;
24873;SDS011;12945;42.648;23.370;2024-01-16T03:38:45;11.65;;;7.63;;
24873;SDS011;12945;42.648;23.370;2024-01-16T03:41:10;11.65;;;7.18;;
24873;SDS011;12945;42.648;23.370;2024-01-16T03:43:36;10.63;;;6.55;;
24873;SDS011;12945;42.648;23.370;2024-01-16T03:46:01;9.15;;;5.75;;
24873;SDS011;12945;42.648;23.370;2024-01-16T03:48:26;10.23;;;6.25;;
24873;SDS011;12945;42.648;23.370;2024-01-16T03:50:52;7.80;;;5.60;;
24873;SDS011;12945;42.648;23.370;2024-01-16T03:53:19;6.80;;;4.85;;
24873;SDS011;12945;42.648;23.370;2024-01-16T03:55:44;7.35;;;4.88;;
24873;SDS011;12945;42.648;23.370;2024-01-16T03:58:10;6.93;;;4.60;;
24873;SDS011;12945;42.648;23.370;2024-01-16T04:00:35;6.28;;;4.35;;
24873;SDS011;12945;42.648;23.370;2024-01-16T04:03:00;6.57;;;4.72;;
24873;SDS011;12945;42.648;23.370;2024-01-16T04:05:25;6.93;;;4.78;;
24873;SDS011;12945;42.648;23.370;2024-01-16T04:07:51;6.75;;;4.65;;
24873;SDS011;12945;42.648;23.370;2024-01-16T04:10:17;5.97;;;4.18;;
24873;SDS011;12945;42.648;23.370;2024-01-16T04:12:42;5.70;;;4.18;;
24873;SDS011;12945;42.648;23.370;2024-01-16T04:15:08;6.05;;;3.85;;
24873;SDS011;12945;42.648;23.370;2024-01-16T04:17:33;5.13;;;3.60;;
24873;SDS011;12945;42.648;23.370;2024-01-16T04:19:58;4.88;;;3.45;;
24873;SDS011;12945;42.648;23.370;2024-01-16T04:22:24;5.88;;;3.50;;
24873;SDS011;12945;42.648;23.370;2024-01-16T04:24:49;4.57;;;3.30;;
24873;SDS011;12945;42.648;23.370;2024-01-16T04:27:14;4.10;;;2.90;;
24873;SDS011;12945;42.648;23.370;2024-01-16T04:29:40;3.33;;;2.60;;
24873;SDS011;12945;42.648;23.370;2024-01-16T04:32:05;3.88;;;2.63;;
24873;SDS011;12945;42.648;23.370;2024-01-16T04:34:30;3.40;;;2.50;;
24873;SDS011;12945;42.648;23.370;2024-01-16T04:36:55;4.03;;;2.95;;
24873;SDS011;12945;42.648;23.370;2024-01-16T04:39:21;3.47;;;2.60;;
24873;SDS011;12945;42.648;23.370;2024-01-16T04:41:48;2.97;;;2.40;;
24873;SDS011;12945;42.648;23.370;2024-01-16T04:44:13;2.70;;;2.25;;
24873;SDS011;12945;42.648;23.370;2024-01-16T04:46:38;3.42;;;2.47;;
24873;SDS011;12945;42.648;23.370;2024-01-16T04:49:03;2.92;;;2.33;;
24873;SDS011;12945;42.648;23.370;2024-01-16T04:51:31;2.85;;;2.20;;
24873;SDS011;12945;42.648;23.370;2024-01-16T04:53:56;3.00;;;2.13;;
24873;SDS011;12945;42.648;23.370;2024-01-16T04:56:21;3.00;;;2.33;;
24873;SDS011;12945;42.648;23.370;2024-01-16T04:58:47;3.88;;;2.38;;
24873;SDS011;12945;42.648;23.370;2024-01-16T05:01:12;3.33;;;2.38;;
24873;SDS011;12945;42.648;23.370;2024-01-16T05:03:38;3.25;;;2.20;;
24873;SDS011;12945;42.648;23.370;2024-01-16T05:06:03;3.42;;;2.50;;
24873;SDS011;12945;42.648;23.370;2024-01-16T05:08:28;2.88;;;2.17;;
24873;SDS011;12945;42.648;23.370;2024-01-16T05:10:55;2.92;;;2.17;;
24873;SDS011;12945;42.648;23.370;2024-01-16T05:13:20;3.17;;;2.10;;
24873;SDS011;12945;42.648;23.370;2024-01-16T05:15:45;3.47;;;2.17;;
24873;SDS011;12945;42.648;23.370;2024-01-16T05:18:11;6.70;;;4.40;;
24873;SDS011;12945;42.648;23.370;2024-01-16T05:20:36;3.15;;;2.40;;
24873;SDS011;12945;42.648;23.370;2024-01-16T05:23:01;3.00;;;2.28;;
24873;SDS011;12945;42.648;23.370;2024-01-16T05:25:27;3.10;;;2.20;;
24873;SDS011;12945;42.648;23.370;2024-01-16T05:27:52;2.88;;;1.80;;
24873;SDS011;12945;42.648;23.370;2024-01-16T05:30:17;2.50;;;2.00;;
24873;SDS011;12945;42.648;23.370;2024-01-16T05:32:42;2.75;;;2.08;;
24873;SDS011;12945;42.648;23.370;2024-01-16T05:35:08;2.67;;;1.80;;
24873;SDS011;12945;42.648;23.370;2024-01-16T05:37:34;3.47;;;2.25;;
24873;SDS011;12945;42.648;23.370;2024-01-16T05:40:00;2.88;;;1.90;;
24873;SDS011;12945;42.648;23.370;2024-01-16T05:42:25;3.95;;;2.15;;
24873;SDS011;12945;42.648;23.370;2024-01-16T05:44:50;2.70;;;1.98;;
24873;SDS011;12945;42.648;23.370;2024-01-16T05:47:18;2.53;;;1.90;;
24873;SDS011;12945;42.648;23.370;2024-01-16T05:49:43;3.88;;;2.17;;
24873;SDS011;12945;42.648;23.370;2024-01-16T05:52:09;3.45;;;2.20;;
24873;SDS011;12945;42.648;23.370;2024-01-16T05:54:34;3.00;;;2.05;;
24873;SDS011;12945;42.648;23.370;2024-01-16T05:56:59;3.83;;;2.85;;
24873;SDS011;12945;42.648;23.370;2024-01-16T05:59:24;5.65;;;3.53;;
24873;SDS011;12945;42.648;23.370;2024-01-16T06:01:50;3.60;;;2.72;;
24873;SDS011;12945;42.648;23.370;2024-01-16T06:04:15;4.25;;;2.75;;
24873;SDS011;12945;42.648;23.370;2024-01-16T06:06:41;3.65;;;2.63;;
24873;SDS011;12945;42.648;23.370;2024-01-16T06:09:10;3.63;;;2.38;;
24873;SDS011;12945;42.648;23.370;2024-01-16T06:11:38;5.60;;;2.45;;
24873;SDS011;12945;42.648;23.370;2024-01-16T06:14:05;3.40;;;2.30;;
24873;SDS011;12945;42.648;23.370;2024-01-16T06:16:31;4.00;;;2.55;;
24873;SDS011;12945;42.648;23.370;2024-01-16T06:18:56;3.60;;;2.40;;
24873;SDS011;12945;42.648;23.370;2024-01-16T06:21:21;3.97;;;2.92;;
24873;SDS011;12945;42.648;23.370;2024-01-16T06:23:47;4.15;;;2.67;;
24873;SDS011;12945;42.648;23.370;2024-01-16T06:26:12;4.05;;;2.70;;
24873;SDS011;12945;42.648;23.370;2024-01-16T06:28:37;3.47;;;2.47;;
24873;SDS011;12945;42.648;23.370;2024-01-16T06:31:03;4.05;;;2.40;;
24873;SDS011;12945;42.648;23.370;2024-01-16T06:33:28;4.10;;;2.65;;
24873;SDS011;12945;42.648;23.370;2024-01-16T06:35:56;4.22;;;2.95;;
24873;SDS011;12945;42.648;23.370;2024-01-16T06:38:21;4.00;;;2.83;;
24873;SDS011;12945;42.648;23.370;2024-01-16T06:40:47;6.93;;;3.78;;
24873;SDS011;12945;42.648;23.370;2024-01-16T06:43:12;4.28;;;2.88;;
24873;SDS011;12945;42.648;23.370;2024-01-16T06:45:40;5.13;;;3.45;;
24873;SDS011;12945;42.648;23.370;2024-01-16T06:48:05;5.07;;;3.00;;
24873;SDS011;12945;42.648;23.370;2024-01-16T06:50:31;5.10;;;2.88;;
24873;SDS011;12945;42.648;23.370;2024-01-16T06:52:56;4.72;;;2.65;;
24873;SDS011;12945;42.648;23.370;2024-01-16T06:55:22;3.97;;;2.55;;
24873;SDS011;12945;42.648;23.370;2024-01-16T06:57:48;3.35;;;2.38;;
24873;SDS011;12945;42.648;23.370;2024-01-16T07:00:13;2.80;;;1.80;;
24873;SDS011;12945;42.648;23.370;2024-01-16T07:02:39;3.45;;;2.42;;
24873;SDS011;12945;42.648;23.370;2024-01-16T07:05:04;4.57;;;2.35;;
24873;SDS011;12945;42.648;23.370;2024-01-16T07:07:30;8.68;;;2.90;;
24873;SDS011;12945;42.648;23.370;2024-01-16T07:09:55;13.23;;;3.33;;
24873;SDS011;12945;42.648;23.370;2024-01-16T07:12:20;4.78;;;2.60;;
24873;SDS011;12945;42.648;23.370;2024-01-16T07:14:46;4.78;;;2.22;;
24873;SDS011;12945;42.648;23.370;2024-01-16T07:17:12;3.55;;;1.92;;
24873;SDS011;12945;42.648;23.370;2024-01-16T07:19:37;2.80;;;1.90;;
24873;SDS011;12945;42.648;23.370;2024-01-16T07:22:02;4.13;;;2.00;;
24873;SDS011;12945;42.648;23.370;2024-01-16T07:24:28;3.95;;;2.20;;
24873;SDS011;12945;42.648;23.370;2024-01-16T07:26:53;2.90;;;2.00;;
24873;SDS011;12945;42.648;23.370;2024-01-16T07:29:19;2.85;;;2.03;;
24873;SDS011;12945;42.648;23.370;2024-01-16T07:31:45;3.28;;;2.00;;
24873;SDS011;12945;42.648;23.370;2024-01-16T07:34:10;3.78;;;2.08;;
24873;SDS011;12945;42.648;23.370;2024-01-16T07:36:35;4.35;;;2.03;;
24873;SDS011;12945;42.648;23.370;2024-01-16T07:39:00;4.03;;;2.05;;
24873;SDS011;12945;42.648;23.370;2024-01-16T07:41:26;3.90;;;2.00;;
24873;SDS011;12945;42.648;23.370;2024-01-16T07:43:51;2.58;;;1.80;;
24873;SDS011;12945;42.648;23.370;2024-01-16T07:46:16;3.45;;;2.15;;
24873;SDS011;12945;42.648;23.370;2024-01-16T07:48:42;3.72;;;1.85;;
24873;SDS011;12945;42.648;23.370;2024-01-16T07:51:07;2.55;;;1.80;;
24873;SDS011;12945;42.648;23.370;2024-01-16T07:53:32;3.45;;;1.90;;
24873;SDS011;12945;42.648;23.370;2024-01-16T07:55:57;3.10;;;2.00;;
24873;SDS011;12945;42.648;23.370;2024-01-16T07:58:23;2.60;;;1.75;;
24873;SDS011;12945;42.648;23.370;2024-01-16T08:00:48;4.50;;;2.22;;
24873;SDS011;12945;42.648;23.370;2024-01-16T08:03:14;5.18;;;2.83;;
24873;SDS011;12945;42.648;23.370;2024-01-16T08:05:39;3.80;;;2.10;;
24873;SDS011;12945;42.648;23.370;2024-01-16T08:08:05;3.28;;;1.83;;
24873;SDS011;12945;42.648;23.370;2024-01-16T08:10:30;4.75;;;2.55;;
24873;SDS011;12945;42.648;23.370;2024-01-16T08:12:56;4.93;;;2.72;;
24873;SDS011;12945;42.648;23.370;2024-01-16T08:15:21;3.67;;;2.20;;
24873;SDS011;12945;42.648;23.370;2024-01-16T08:17:46;4.68;;;2.47;;
24873;SDS011;12945;42.648;23.370;2024-01-16T08:20:12;3.80;;;2.50;;
24873;SDS011;12945;42.648;23.370;2024-01-16T08:22:38;3.42;;;2.10;;
24873;SDS011;12945;42.648;23.370;2024-01-16T08:25:03;3.28;;;1.90;;
24873;SDS011;12945;42.648;23.370;2024-01-16T08:27:30;3.60;;;2.20;;
24873;SDS011;12945;42.648;23.370;2024-01-16T08:29:55;2.88;;;2.00;;
24873;SDS011;12945;42.648;23.370;2024-01-16T08:32:21;3.60;;;2.20;;
24873;SDS011;12945;42.648;23.370;2024-01-16T08:34:46;6.85;;;2.53;;
24873;SDS011;12945;42.648;23.370;2024-01-16T08:37:11;3.40;;;2.40;;
24873;SDS011;12945;42.648;23.370;2024-01-16T08:39:36;4.35;;;2.22;;
24873;SDS011;12945;42.648;23.370;2024-01-16T08:42:02;3.42;;;2.15;;
24873;SDS011;12945;42.648;23.370;2024-01-16T08:44:28;3.50;;;2.30;;
24873;SDS011;12945;42.648;23.370;2024-01-16T08:46:53;3.10;;;2.03;;
24873;SDS011;12945;42.648;23.370;2024-01-16T08:49:19;3.42;;;2.10;;
24873;SDS011;12945;42.648;23.370;2024-01-16T08:51:45;3.13;;;2.03;;
24873;SDS011;12945;42.648;23.370;2024-01-16T08:54:10;2.67;;;1.88;;
24873;SDS011;12945;42.648;23.370;2024-01-16T08:56:35;2.47;;;1.75;;
24873;SDS011;12945;42.648;23.370;2024-01-16T08:59:01;4.25;;;1.88;;
24873;SDS011;12945;42.648;23.370;2024-01-16T09:01:26;3.65;;;1.75;;
24873;SDS011;12945;42.648;23.370;2024-01-16T09:03:52;2.90;;;1.88;;
24873;SDS011;12945;42.648;23.370;2024-01-16T09:06:17;3.20;;;1.73;;
24873;SDS011;12945;42.648;23.370;2024-01-16T09:08:42;4.72;;;1.95;;
24873;SDS011;12945;42.648;23.370;2024-01-16T09:11:09;3.45;;;1.70;;
24873;SDS011;12945;42.648;23.370;2024-01-16T09:13:34;2.33;;;1.80;;
24873;SDS011;12945;42.648;23.370;2024-01-16T09:16:00;6.00;;;2.20;;
24873;SDS011;12945;42.648;23.370;2024-01-16T09:18:25;3.00;;;1.70;;
24873;SDS011;12945;42.648;23.370;2024-01-16T09:20:50;3.60;;;1.80;;
24873;SDS011;12945;42.648;23.370;2024-01-16T09:23:15;6.88;;;2.33;;
24873;SDS011;12945;42.648;23.370;2024-01-16T09:25:41;5.78;;;2.70;;
24873;SDS011;12945;42.648;23.370;2024-01-16T09:28:06;8.48;;;2.58;;
24873;SDS011;12945;42.648;23.370;2024-01-16T09:30:31;6.72;;;2.80;;
24873;SDS011;12945;42.648;23.370;2024-01-16T09:32:58;5.28;;;2.60;;
24873;SDS011;12945;42.648;23.370;2024-01-16T09:35:23;4.03;;;2.20;;
24873;SDS011;12945;42.648;23.370;2024-01-16T09:37:49;5.65;;;2.55;;
24873;SDS011;12945;42.648;23.370;2024-01-16T09:40:15;3.90;;;2.25;;
24873;SDS011;12945;42.648;23.370;2024-01-16T09:42:41;7.38;;;2.33;;
24873;SDS011;12945;42.648;23.370;2024-01-16T09:45:06;3.10;;;2.00;;
24873;SDS011;12945;42.648;23.370;2024-01-16T09:47:32;9.05;;;2.42;;
24873;SDS011;12945;42.648;23.370;2024-01-16T09:49:57;5.85;;;2.28;;
24873;SDS011;12945;42.648;23.370;2024-01-16T09:52:24;5.38;;;2.38;;
24873;SDS011;12945;42.648;23.370;2024-01-16T09:54:49;5.75;;;2.00;;
24873;SDS011;12945;42.648;23.370;2024-01-16T09:57:14;6.93;;;2.20;;
24873;SDS011;12945;42.648;23.370;2024-01-16T09:59:40;3.15;;;1.70;;
24873;SDS011;12945;42.648;23.370;2024-01-16T10:02:07;4.40;;;2.13;;
24873;SDS011;12945;42.648;23.370;2024-01-16T10:04:34;3.95;;;1.70;;
24873;SDS011;12945;42.648;23.370;2024-01-16T10:06:59;5.60;;;2.33;;
24873;SDS011;12945;42.648;23.370;2024-01-16T10:09:26;8.57;;;2.13;;
24873;SDS011;12945;42.648;23.370;2024-01-16T10:11:51;6.25;;;2.17;;
24873;SDS011;12945;42.648;23.370;2024-01-16T10:14:17;2.97;;;1.63;;
24873;SDS011;12945;42.648;23.370;2024-01-16T10:16:58;4.72;;;2.35;;
24873;SDS011;12945;42.648;23.370;2024-01-16T10:19:24;3.35;;;2.03;;
24873;SDS011;12945;42.648;23.370;2024-01-16T10:21:50;4.25;;;2.47;;
24873;SDS011;12945;42.648;23.370;2024-01-16T10:24:15;9.77;;;2.30;;
24873;SDS011;12945;42.648;23.370;2024-01-16T10:26:41;3.85;;;1.88;;
24873;SDS011;12945;42.648;23.370;2024-01-16T10:29:06;3.33;;;1.88;;
24873;SDS011;12945;42.648;23.370;2024-01-16T10:31:31;3.95;;;1.85;;
24873;SDS011;12945;42.648;23.370;2024-01-16T10:33:56;3.33;;;1.80;;
24873;SDS011;12945;42.648;23.370;2024-01-16T10:36:23;7.32;;;2.10;;
24873;SDS011;12945;42.648;23.370;2024-01-16T10:38:48;5.55;;;1.90;;
24873;SDS011;12945;42.648;23.370;2024-01-16T10:41:16;4.30;;;2.58;;
24873;SDS011;12945;42.648;23.370;2024-01-16T10:43:42;5.85;;;2.30;;
24873;SDS011;12945;42.648;23.370;2024-01-16T10:46:15;4.93;;;2.13;;
24873;SDS011;12945;42.648;23.370;2024-01-16T10:48:42;8.00;;;2.22;;
24873;SDS011;12945;42.648;23.370;2024-01-16T10:51:09;4.80;;;2.22;;
24873;SDS011;12945;42.648;23.370;2024-01-16T10:53:36;3.22;;;1.98;;
24873;SDS011;12945;42.648;23.370;2024-01-16T10:56:02;4.45;;;2.20;;
24873;SDS011;12945;42.648;23.370;2024-01-16T10:58:28;3.92;;;1.70;;
24873;SDS011;12945;42.648;23.370;2024-01-16T11:00:56;4.88;;;1.85;;
24873;SDS011;12945;42.648;23.370;2024-01-16T11:05:57;4.43;;;1.95;;
24873;SDS011;12945;42.648;23.370;2024-01-16T11:08:22;5.07;;;1.98;;
24873;SDS011;12945;42.648;23.370;2024-01-16T11:10:52;3.83;;;2.03;;
24873;SDS011;12945;42.648;23.370;2024-01-16T11:13:17;2.72;;;1.90;;
24873;SDS011;12945;42.648;23.370;2024-01-16T11:15:43;5.20;;;1.80;;
24873;SDS011;12945;42.648;23.370;2024-01-16T11:18:10;2.38;;;1.65;;
24873;SDS011;12945;42.648;23.370;2024-01-16T11:20:36;5.38;;;2.15;;
24873;SDS011;12945;42.648;23.370;2024-01-16T11:23:02;5.95;;;2.13;;
24873;SDS011;12945;42.648;23.370;2024-01-16T11:25:32;8.35;;;3.22;;
24873;SDS011;12945;42.648;23.370;2024-01-16T11:28:07;4.43;;;2.70;;
24873;SDS011;12945;42.648;23.370;2024-01-16T11:30:32;6.05;;;3.20;;
24873;SDS011;12945;42.648;23.370;2024-01-16T11:32:58;7.50;;;3.00;;
24873;SDS011;12945;42.648;23.370;2024-01-16T11:35:36;5.85;;;2.97;;
24873;SDS011;12945;42.648;23.370;2024-01-16T11:38:35;5.10;;;3.10;;
24873;SDS011;12945;42.648;23.370;2024-01-16T11:40:53;7.97;;;3.28;;
24873;SDS011;12945;42.648;23.370;2024-01-16T11:46:01;3.60;;;2.17;;
24873;SDS011;12945;42.648;23.370;2024-01-16T11:48:26;7.90;;;2.78;;
24873;SDS011;12945;42.648;23.370;2024-01-16T11:50:52;3.72;;;2.42;;
24873;SDS011;12945;42.648;23.370;2024-01-16T12:01:15;5.55;;;2.90;;
24873;SDS011;12945;42.648;23.370;2024-01-16T12:03:41;14.40;;;3.63;;
24873;SDS011;12945;42.648;23.370;2024-01-16T12:06:06;7.30;;;3.58;;
24873;SDS011;12945;42.648;23.370;2024-01-16T12:08:33;9.13;;;3.50;;
24873;SDS011;12945;42.648;23.370;2024-01-16T12:10:59;6.47;;;3.55;;
24873;SDS011;12945;42.648;23.370;2024-01-16T12:13:27;7.43;;;3.67;;
24873;SDS011;12945;42.648;23.370;2024-01-16T12:15:59;8.65;;;4.00;;
24873;SDS011;12945;42.648;23.370;2024-01-16T12:18:24;8.57;;;3.40;;
24873;SDS011;12945;42.648;23.370;2024-01-16T12:20:50;8.25;;;3.10;;
24873;SDS011;12945;42.648;23.370;2024-01-16T12:23:15;7.40;;;3.03;;
24873;SDS011;12945;42.648;23.370;2024-01-16T12:25:41;6.57;;;3.83;;
24873;SDS011;12945;42.648;23.370;2024-01-16T12:28:07;9.60;;;3.38;;
24873;SDS011;12945;42.648;23.370;2024-01-16T12:30:33;4.18;;;2.50;;
24873;SDS011;12945;42.648;23.370;2024-01-16T12:33:05;4.88;;;2.50;;
24873;SDS011;12945;42.648;23.370;2024-01-16T12:35:32;3.90;;;2.60;;
24873;SDS011;12945;42.648;23.370;2024-01-16T12:38:01;4.03;;;2.42;;
24873;SDS011;12945;42.648;23.370;2024-01-16T12:40:27;3.35;;;2.40;;
24873;SDS011;12945;42.648;23.370;2024-01-16T12:42:52;7.38;;;2.70;;
24873;SDS011;12945;42.648;23.370;2024-01-16T12:45:18;5.20;;;2.45;;
24873;SDS011;12945;42.648;23.370;2024-01-16T12:47:43;7.47;;;2.83;;
24873;SDS011;12945;42.648;23.370;2024-01-16T12:50:09;4.50;;;2.65;;
24873;SDS011;12945;42.648;23.370;2024-01-16T12:52:35;4.97;;;2.70;;
24873;SDS011;12945;42.648;23.370;2024-01-16T12:55:00;6.15;;;3.20;;
24873;SDS011;12945;42.648;23.370;2024-01-16T12:57:26;3.78;;;2.50;;
24873;SDS011;12945;42.648;23.370;2024-01-16T12:59:51;5.28;;;3.22;;
24873;SDS011;12945;42.648;23.370;2024-01-16T13:02:21;5.40;;;2.40;;
24873;SDS011;12945;42.648;23.370;2024-01-16T13:04:47;5.40;;;2.60;;
24873;SDS011;12945;42.648;23.370;2024-01-16T13:07:15;6.25;;;3.00;;
24873;SDS011;12945;42.648;23.370;2024-01-16T13:09:41;4.57;;;3.15;;
24873;SDS011;12945;42.648;23.370;2024-01-16T13:12:07;10.15;;;3.50;;
24873;SDS011;12945;42.648;23.370;2024-01-16T13:14:32;6.28;;;3.38;;
24873;SDS011;12945;42.648;23.370;2024-01-16T13:16:58;5.90;;;3.38;;
24873;SDS011;12945;42.648;23.370;2024-01-16T13:19:26;5.72;;;3.17;;
24873;SDS011;12945;42.648;23.370;2024-01-16T13:21:51;10.70;;;3.40;;
24873;SDS011;12945;42.648;23.370;2024-01-16T13:24:17;6.00;;;3.42;;
24873;SDS011;12945;42.648;23.370;2024-01-16T13:26:45;6.20;;;3.20;;
24873;SDS011;12945;42.648;23.370;2024-01-16T13:29:10;8.35;;;3.90;;
24873;SDS011;12945;42.648;23.370;2024-01-16T13:31:36;4.18;;;2.70;;
24873;SDS011;12945;42.648;23.370;2024-01-16T13:34:01;5.45;;;3.10;;
24873;SDS011;12945;42.648;23.370;2024-01-16T13:36:27;5.78;;;2.95;;
24873;SDS011;12945;42.648;23.370;2024-01-16T13:38:53;8.32;;;3.35;;
24873;SDS011;12945;42.648;23.370;2024-01-16T13:41:18;7.53;;;3.55;;
24873;SDS011;12945;42.648;23.370;2024-01-16T13:43:43;9.32;;;3.58;;
24873;SDS011;12945;42.648;23.370;2024-01-16T13:46:09;6.10;;;3.30;;
24873;SDS011;12945;42.648;23.370;2024-01-16T13:48:35;4.88;;;3.00;;
24873;SDS011;12945;42.648;23.370;2024-01-16T13:51:00;6.90;;;3.70;;
24873;SDS011;12945;42.648;23.370;2024-01-16T13:53:25;11.40;;;3.65;;
24873;SDS011;12945;42.648;23.370;2024-01-16T13:55:52;8.07;;;3.40;;
24873;SDS011;12945;42.648;23.370;2024-01-16T13:58:17;8.43;;;3.47;;
24873;SDS011;12945;42.648;23.370;2024-01-16T14:00:43;6.32;;;3.15;;
24873;SDS011;12945;42.648;23.370;2024-01-16T14:03:09;5.60;;;3.08;;
24873;SDS011;12945;42.648;23.370;2024-01-16T14:05:34;6.10;;;4.03;;
24873;SDS011;12945;42.648;23.370;2024-01-16T14:08:01;7.13;;;3.28;;
24873;SDS011;12945;42.648;23.370;2024-01-16T14:10:26;8.35;;;3.30;;
24873;SDS011;12945;42.648;23.370;2024-01-16T14:12:51;8.48;;;3.45;;
24873;SDS011;12945;42.648;23.370;2024-01-16T14:15:18;5.93;;;2.85;;
24873;SDS011;12945;42.648;23.370;2024-01-16T14:17:45;5.78;;;3.20;;
24873;SDS011;12945;42.648;23.370;2024-01-16T14:20:11;8.25;;;3.40;;
24873;SDS011;12945;42.648;23.370;2024-01-16T14:22:36;4.70;;;3.38;;
24873;SDS011;12945;42.648;23.370;2024-01-16T14:25:03;11.30;;;5.50;;
24873;SDS011;12945;42.648;23.370;2024-01-16T14:27:35;8.57;;;3.95;;
24873;SDS011;12945;42.648;23.370;2024-01-16T14:30:01;6.55;;;4.00;;
24873;SDS011;12945;42.648;23.370;2024-01-16T14:32:26;9.45;;;4.07;;